createdAt,value
2018-08-13T00:01:17.425Z,1.60
2018-08-13T00:03:45.847Z,1.83
2018-08-13T00:06:14.120Z,1.70
2018-08-13T00:08:42.376Z,1.40
2018-08-13T00:11:10.609Z,1.60
2018-08-13T00:13:38.886Z,1.60
2018-08-13T00:16:07.304Z,1.83
2018-08-13T00:18:35.582Z,1.53
2018-08-13T00:21:03.861Z,1.40
2018-08-13T00:23:32.116Z,1.70
2018-08-13T00:26:01.042Z,1.73
2018-08-13T00:28:29.368Z,1.57
2018-08-13T00:30:57.594Z,1.70
2018-08-13T00:33:25.861Z,1.90
2018-08-13T00:35:54.141Z,1.80
2018-08-13T00:38:22.379Z,1.70
2018-08-13T00:40:50.600Z,1.80
2018-08-13T00:43:18.854Z,1.50
2018-08-13T00:45:47.110Z,1.60
2018-08-13T00:48:15.349Z,1.77
2018-08-13T00:50:43.747Z,1.50
2018-08-13T00:53:11.962Z,1.60
2018-08-13T00:55:40.235Z,1.67
2018-08-13T00:58:08.824Z,1.47
2018-08-13T01:00:37.079Z,1.60
2018-08-13T01:03:05.956Z,1.70
2018-08-13T01:05:34.192Z,1.53
2018-08-13T01:08:02.521Z,1.73
2018-08-13T01:10:31.075Z,1.30
2018-08-13T01:12:59.285Z,1.57
2018-08-13T01:15:27.540Z,1.30
2018-08-13T01:17:55.811Z,1.70
2018-08-13T01:20:24.009Z,1.80
2018-08-13T01:22:52.518Z,1.40
2018-08-13T01:25:21.238Z,1.60
2018-08-13T01:27:49.492Z,1.60
2018-08-13T01:30:18.764Z,1.70
2018-08-13T01:32:47.042Z,1.60
2018-08-13T01:35:15.327Z,1.57
2018-08-13T01:37:43.582Z,1.80
2018-08-13T01:40:12.561Z,1.50
2018-08-13T01:42:40.781Z,1.67
2018-08-13T01:45:10.381Z,1.80
2018-08-13T01:47:38.821Z,1.60
2018-08-13T01:50:08.869Z,1.50
2018-08-13T01:52:37.665Z,1.70
2018-08-13T01:55:07.257Z,1.70
2018-08-13T01:57:35.517Z,1.67
2018-08-13T02:00:05.115Z,1.53
2018-08-13T02:02:33.328Z,1.77
2018-08-13T02:05:01.611Z,1.43
2018-08-13T02:07:29.860Z,1.60
2018-08-13T02:09:58.158Z,1.63
2018-08-13T02:12:26.412Z,1.70
2018-08-13T02:14:54.671Z,1.37
2018-08-13T02:17:22.904Z,1.60
2018-08-13T02:19:51.108Z,1.50
2018-08-13T02:22:19.318Z,1.60
2018-08-13T02:24:47.616Z,1.43
2018-08-13T02:27:15.877Z,1.50
2018-08-13T02:29:44.081Z,1.40
2018-08-13T02:32:12.339Z,1.70
2018-08-13T02:34:40.306Z,1.53
2018-08-13T02:37:08.584Z,1.60
2018-08-13T02:39:36.949Z,1.73
2018-08-13T02:42:05.193Z,1.60
2018-08-13T02:44:33.492Z,1.60
2018-08-13T02:47:01.739Z,1.60
2018-08-13T02:49:29.959Z,1.50
2018-08-13T02:51:58.207Z,1.70
2018-08-13T02:54:26.414Z,1.50
2018-08-13T02:56:54.664Z,1.33
2018-08-13T02:59:22.883Z,1.50
2018-08-13T03:01:51.126Z,1.30
2018-08-13T03:04:19.391Z,1.70
2018-08-13T03:06:47.661Z,1.57
2018-08-13T03:09:15.966Z,1.60
2018-08-13T03:11:44.502Z,1.63
2018-08-13T03:14:12.720Z,1.70
2018-08-13T03:16:41.001Z,1.73
2018-08-13T03:19:09.245Z,1.60
2018-08-13T03:21:37.629Z,1.80
2018-08-13T03:24:06.091Z,1.73
2018-08-13T03:26:34.325Z,1.70
2018-08-13T03:29:02.557Z,1.87
2018-08-13T03:31:30.806Z,1.90
2018-08-13T03:33:59.028Z,1.60
2018-08-13T03:36:27.297Z,1.73
2018-08-13T03:38:55.641Z,1.73
2018-08-13T03:41:23.923Z,1.67
2018-08-13T03:43:52.154Z,1.80
2018-08-13T03:46:20.433Z,1.70
2018-08-13T03:48:48.672Z,1.67
2018-08-13T03:51:17.614Z,1.70
2018-08-13T03:53:45.964Z,1.90
2018-08-13T03:56:14.217Z,1.50
2018-08-13T03:58:42.467Z,1.87
2018-08-13T04:01:10.690Z,1.77
2018-08-13T04:03:38.912Z,1.53
2018-08-13T04:06:07.214Z,1.80
2018-08-13T04:08:35.479Z,1.47
2018-08-13T04:11:03.752Z,1.87
2018-08-13T04:13:32.002Z,1.90
2018-08-13T04:16:00.245Z,1.63
2018-08-13T04:18:28.551Z,1.90
2018-08-13T04:20:56.789Z,1.73
2018-08-13T04:23:25.020Z,1.70
2018-08-13T04:25:53.241Z,1.90
2018-08-13T04:28:21.514Z,1.70
2018-08-13T04:30:49.761Z,1.60
2018-08-13T04:33:18.055Z,2.17
2018-08-13T04:35:46.322Z,1.73
2018-08-13T04:38:14.529Z,2.00
2018-08-13T04:40:42.780Z,1.80
2018-08-13T04:43:11.003Z,2.00
2018-08-13T04:45:39.200Z,2.30
2018-08-13T04:48:07.456Z,2.00
2018-08-13T04:50:35.680Z,2.10
2018-08-13T04:53:03.934Z,2.00
2018-08-13T04:55:32.145Z,2.40
2018-08-13T04:58:00.436Z,2.10
2018-08-13T05:00:28.727Z,2.13
2018-08-13T05:02:56.978Z,2.20
2018-08-13T05:05:25.232Z,2.17
2018-08-13T05:07:53.545Z,2.00
2018-08-13T05:10:21.821Z,2.20
2018-08-13T05:12:50.134Z,2.07
2018-08-13T05:15:18.357Z,2.13
2018-08-13T05:17:46.632Z,1.83
2018-08-13T05:20:14.912Z,2.10
2018-08-13T05:22:43.167Z,2.03
2018-08-13T05:25:11.477Z,1.80
2018-08-13T05:27:40.568Z,1.70
2018-08-13T05:30:09.962Z,1.80
2018-08-13T05:32:38.187Z,2.00
2018-08-13T05:35:06.808Z,1.80
2018-08-13T05:37:35.136Z,1.97
2018-08-13T05:40:03.438Z,1.97
2018-08-13T05:42:31.741Z,2.10
2018-08-13T05:45:00.001Z,2.00
2018-08-13T05:47:28.259Z,2.13
2018-08-13T05:49:56.488Z,2.37
2018-08-13T05:52:24.746Z,2.07
2018-08-13T05:54:53.043Z,1.80
2018-08-13T05:57:21.369Z,1.97
2018-08-13T05:59:49.639Z,1.90
2018-08-13T06:02:17.964Z,2.00
2018-08-13T06:04:46.455Z,1.80
2018-08-13T06:07:14.741Z,2.07
2018-08-13T06:09:43.012Z,1.87
2018-08-13T06:12:11.326Z,2.00
2018-08-13T06:14:39.642Z,2.03
2018-08-13T06:17:07.896Z,1.60
2018-08-13T06:19:36.137Z,2.00
2018-08-13T06:22:04.505Z,2.10
2018-08-13T06:24:32.749Z,1.90
2018-08-13T06:27:00.983Z,1.80
2018-08-13T06:29:29.275Z,1.97
2018-08-13T06:31:57.543Z,2.10
2018-08-13T06:34:25.822Z,2.50
2018-08-13T06:36:54.057Z,2.37
2018-08-13T06:39:22.268Z,2.13
2018-08-13T06:41:50.464Z,2.00
2018-08-13T06:44:18.830Z,2.10
2018-08-13T06:46:47.110Z,1.90
2018-08-13T06:49:15.385Z,2.10
2018-08-13T06:51:43.693Z,1.90
2018-08-13T06:54:12.038Z,2.20
2018-08-13T06:56:40.438Z,1.90
2018-08-13T06:59:08.733Z,2.30
2018-08-13T07:01:37.062Z,2.10
2018-08-13T07:04:05.367Z,2.30
2018-08-13T07:06:33.646Z,1.93
2018-08-13T07:09:02.131Z,2.43
2018-08-13T07:11:30.420Z,2.60
2018-08-13T07:13:58.658Z,2.20
2018-08-13T07:16:26.918Z,2.50
2018-08-13T07:18:55.140Z,2.30
2018-08-13T07:21:23.390Z,2.30
2018-08-13T07:23:51.760Z,2.37
2018-08-13T07:26:20.049Z,2.23
2018-08-13T07:28:48.244Z,2.33
2018-08-13T07:31:16.493Z,2.17
2018-08-13T07:33:44.808Z,2.33
2018-08-13T07:36:13.028Z,2.33
2018-08-13T07:38:41.284Z,2.53
2018-08-13T07:41:09.529Z,2.60
2018-08-13T07:43:37.785Z,2.47
2018-08-13T07:46:06.076Z,2.17
2018-08-13T07:48:34.425Z,2.13
2018-08-13T07:51:02.635Z,2.27
2018-08-13T07:53:30.915Z,2.23
2018-08-13T07:55:59.232Z,2.10
2018-08-13T07:58:27.785Z,2.10
2018-08-13T08:00:56.089Z,1.70
2018-08-13T08:03:24.313Z,2.00
2018-08-13T08:05:52.597Z,1.97
2018-08-13T08:08:20.821Z,1.90
2018-08-13T08:10:49.476Z,2.20
2018-08-13T08:13:17.720Z,2.30
2018-08-13T08:15:45.952Z,2.10
2018-08-13T08:18:14.172Z,2.40
2018-08-13T08:20:42.420Z,2.00
2018-08-13T08:23:10.869Z,2.57
2018-08-13T08:25:40.060Z,2.40
2018-08-13T08:28:08.369Z,2.27
2018-08-13T08:30:36.620Z,2.23
2018-08-13T08:33:05.729Z,2.20
2018-08-13T08:35:35.260Z,2.40
2018-08-13T08:38:03.565Z,2.40
2018-08-13T08:40:31.914Z,2.10
2018-08-13T08:43:00.216Z,2.47
2018-08-13T08:45:28.474Z,2.07
2018-08-13T08:47:57.267Z,2.27
2018-08-13T08:50:26.203Z,2.43
2018-08-13T08:52:54.398Z,2.27
2018-08-13T08:55:23.062Z,2.40
2018-08-13T08:57:51.364Z,2.23
2018-08-13T09:00:21.974Z,2.50
2018-08-13T09:02:50.272Z,2.40
2018-08-13T09:05:18.504Z,2.20
2018-08-13T09:07:47.095Z,2.50
2018-08-13T09:10:15.385Z,2.57
2018-08-13T09:12:43.564Z,2.63
2018-08-13T09:15:14.617Z,2.40
2018-08-13T09:17:54.616Z,2.30
2018-08-13T09:20:34.257Z,2.60
2018-08-13T09:23:13.806Z,2.70
2018-08-13T09:25:53.140Z,2.70
2018-08-13T09:28:32.834Z,2.80
2018-08-13T09:32:14.707Z,2.50
2018-08-13T09:34:49.595Z,3.07
2018-08-13T09:37:17.845Z,2.43
2018-08-13T09:39:46.069Z,2.70
2018-08-13T09:42:14.411Z,2.40
2018-08-13T09:44:42.651Z,2.50
2018-08-13T09:47:10.933Z,2.70
2018-08-13T09:49:39.227Z,2.80
2018-08-13T09:52:07.623Z,2.50
2018-08-13T09:54:35.973Z,2.50
2018-08-13T09:57:04.199Z,2.50
2018-08-13T09:59:32.642Z,2.40
2018-08-13T10:02:00.890Z,2.53
2018-08-13T10:04:29.108Z,2.30
2018-08-13T10:06:57.464Z,2.37
2018-08-13T10:09:25.757Z,2.50
2018-08-13T10:11:54.023Z,2.23
2018-08-13T10:14:22.253Z,2.33
2018-08-13T10:16:50.555Z,2.00
2018-08-13T10:19:18.720Z,2.00
2018-08-13T10:21:47.037Z,1.80
2018-08-13T10:24:15.249Z,1.87
2018-08-13T10:26:43.504Z,1.97
2018-08-13T10:29:11.793Z,1.80
2018-08-13T10:31:40.068Z,1.80
2018-08-13T10:34:08.304Z,1.87
2018-08-13T10:36:36.589Z,2.00
2018-08-13T10:39:07.320Z,1.62
2018-08-13T10:41:35.537Z,1.90
2018-08-13T10:44:04.662Z,1.80
2018-08-13T10:46:32.876Z,1.53
2018-08-13T10:49:01.852Z,1.77
2018-08-13T10:51:30.144Z,1.57
2018-08-13T10:53:58.472Z,1.60
2018-08-13T10:56:26.733Z,1.20
2018-08-13T10:58:54.992Z,1.73
2018-08-13T11:01:23.387Z,1.20
2018-08-13T11:03:51.634Z,1.60
2018-08-13T11:06:19.981Z,1.33
2018-08-13T11:08:48.324Z,1.20
2018-08-13T11:11:16.533Z,1.27
2018-08-13T11:13:44.823Z,1.40
2018-08-13T11:16:13.113Z,1.10
2018-08-13T11:18:41.369Z,1.23
2018-08-13T11:21:09.692Z,1.10
2018-08-13T11:23:37.928Z,1.10
2018-08-13T11:26:06.249Z,1.20
2018-08-13T11:28:34.618Z,1.20
2018-08-13T11:31:02.871Z,1.13
2018-08-13T11:33:31.104Z,1.20
2018-08-13T11:35:59.349Z,1.20
2018-08-13T11:38:27.909Z,1.00
2018-08-13T11:40:56.160Z,1.17
2018-08-13T11:43:24.538Z,1.20
2018-08-13T11:45:52.817Z,1.20
2018-08-13T11:48:21.113Z,1.40
2018-08-13T11:50:49.425Z,1.40
2018-08-13T11:53:17.676Z,1.40
2018-08-13T11:55:45.936Z,1.40
2018-08-13T11:58:14.203Z,1.60
2018-08-13T12:00:42.454Z,1.77
2018-08-13T12:03:10.725Z,1.47
2018-08-13T12:05:38.944Z,1.30
2018-08-13T12:08:07.221Z,1.27
2018-08-13T12:10:35.541Z,1.50
2018-08-13T12:13:03.818Z,1.77
2018-08-13T12:15:32.100Z,1.87
2018-08-13T12:18:00.403Z,1.80
2018-08-13T12:20:29.052Z,1.70
2018-08-13T12:22:57.377Z,1.63
2018-08-13T12:25:27.087Z,1.70
2018-08-13T12:27:55.620Z,1.77
2018-08-13T12:30:23.885Z,1.77
2018-08-13T12:32:53.883Z,1.60
2018-08-13T12:35:23.767Z,1.70
2018-08-13T12:37:54.507Z,1.57
2018-08-13T12:40:22.778Z,1.60
2018-08-13T12:42:51.016Z,1.70
2018-08-13T12:45:19.415Z,1.40
2018-08-13T12:47:47.808Z,1.73
2018-08-13T12:50:18.756Z,2.00
2018-08-13T12:52:48.250Z,1.80
2018-08-13T12:55:16.726Z,1.60
2018-08-13T12:57:44.988Z,1.77
2018-08-13T13:00:14.741Z,1.93
2018-08-13T13:02:43.148Z,1.80
2018-08-13T13:05:12.684Z,1.70
2018-08-13T13:07:41.011Z,1.60
2018-08-13T13:10:11.764Z,1.50
2018-08-13T13:12:40.536Z,1.50
2018-08-13T13:15:10.504Z,1.60
2018-08-13T13:17:39.549Z,1.70
2018-08-13T13:20:09.670Z,1.63
2018-08-13T13:22:37.921Z,1.47
2018-08-13T13:25:06.629Z,1.80
2018-08-13T13:27:35.088Z,2.10
2018-08-13T13:30:03.501Z,2.03
2018-08-13T13:32:31.758Z,1.83
2018-08-13T13:35:00.072Z,2.10
2018-08-13T13:37:28.372Z,1.80
2018-08-13T13:39:56.787Z,2.40
2018-08-13T13:42:25.033Z,2.30
2018-08-13T13:44:53.268Z,2.13
2018-08-13T13:47:21.502Z,2.60
2018-08-13T13:49:49.692Z,2.80
2018-08-13T13:52:17.999Z,2.90
2018-08-13T13:54:46.247Z,2.83
2018-08-13T13:57:14.594Z,3.17
2018-08-13T13:59:43.006Z,2.70
2018-08-13T14:02:11.278Z,3.23
2018-08-13T14:04:39.560Z,3.10
2018-08-13T14:07:07.825Z,3.60
2018-08-13T14:09:36.151Z,3.67
2018-08-13T14:12:04.458Z,3.43
2018-08-13T14:14:32.734Z,3.80
2018-08-13T14:17:01.112Z,3.70
2018-08-13T14:19:29.328Z,3.90
2018-08-13T14:21:58.007Z,4.53
2018-08-13T14:24:26.258Z,4.70
2018-08-13T14:26:54.478Z,3.93
2018-08-13T14:29:22.907Z,4.63
2018-08-13T14:31:51.165Z,3.70
2018-08-13T14:34:19.778Z,3.60
2018-08-13T14:36:47.993Z,3.60
2018-08-13T14:39:16.267Z,3.60
2018-08-13T14:41:44.545Z,3.30
2018-08-13T14:44:12.779Z,3.17
2018-08-13T14:46:40.992Z,2.60
2018-08-13T14:49:15.655Z,2.27
2018-08-13T14:51:43.925Z,2.23
2018-08-13T14:54:12.243Z,2.07
2018-08-13T14:56:40.542Z,1.77
2018-08-13T14:59:09.094Z,1.80
2018-08-13T15:01:37.377Z,2.13
2018-08-13T15:04:05.657Z,2.30
2018-08-13T15:06:33.993Z,1.80
2018-08-13T15:09:02.242Z,2.00
2018-08-13T15:11:39.222Z,2.17
2018-08-13T15:14:08.876Z,2.30
2018-08-13T15:16:37.142Z,2.40
2018-08-13T15:19:05.548Z,6.57
2018-08-13T15:21:33.783Z,4.70
2018-08-13T15:24:02.473Z,3.37
2018-08-13T15:26:30.804Z,2.77
2018-08-13T15:28:59.364Z,2.80
2018-08-13T15:31:27.680Z,3.47
2018-08-13T15:33:56.033Z,2.90
2018-08-13T15:36:24.331Z,3.10
2018-08-13T15:38:52.598Z,2.77
2018-08-13T15:41:20.846Z,2.70
2018-08-13T15:43:49.111Z,2.83
2018-08-13T15:46:17.337Z,3.03
2018-08-13T15:48:45.547Z,2.53
2018-08-13T15:51:13.795Z,2.90
2018-08-13T15:53:42.012Z,2.80
2018-08-13T15:56:10.317Z,2.50
2018-08-13T15:58:38.608Z,2.40
2018-08-13T16:01:06.868Z,2.53
2018-08-13T16:03:35.201Z,2.67
2018-08-13T16:06:03.637Z,2.97
2018-08-13T16:08:31.903Z,2.80
2018-08-13T16:11:00.206Z,3.10
2018-08-13T16:13:28.480Z,2.90
2018-08-13T16:15:56.774Z,2.83
2018-08-13T16:18:25.036Z,3.70
2018-08-13T16:20:53.281Z,3.40
2018-08-13T16:23:21.557Z,3.37
2018-08-13T16:25:49.816Z,3.20
2018-08-13T16:28:18.124Z,3.63
2018-08-13T16:30:46.381Z,4.80
2018-08-13T16:33:14.642Z,4.20
2018-08-13T16:35:42.926Z,4.63
2018-08-13T16:38:11.138Z,5.03
2018-08-13T16:40:39.391Z,4.77
2018-08-13T16:43:07.662Z,4.80
2018-08-13T16:45:35.942Z,4.53
2018-08-13T16:48:04.297Z,3.63
2018-08-13T16:50:33.645Z,3.60
2018-08-13T16:53:02.309Z,3.70
2018-08-13T16:55:31.481Z,3.80
2018-08-13T16:58:00.399Z,4.43
2018-08-13T17:00:29.895Z,4.30
2018-08-13T17:02:58.637Z,4.20
2018-08-13T17:05:27.290Z,4.23
2018-08-13T17:07:55.605Z,4.50
2018-08-13T17:10:25.206Z,4.10
2018-08-13T17:12:55.806Z,4.33
2018-08-13T17:15:24.698Z,4.50
2018-08-13T17:17:55.023Z,3.50
2018-08-13T17:20:35.252Z,3.40
2018-08-13T17:23:03.562Z,3.20
2018-08-13T17:25:33.613Z,3.47
2018-08-13T17:28:01.879Z,3.70
2018-08-13T17:30:30.101Z,3.67
2018-08-13T17:32:59.689Z,4.00
2018-08-13T17:35:29.836Z,3.57
2018-08-13T17:37:58.647Z,4.00
2018-08-13T17:40:27.108Z,4.03
2018-08-13T17:42:56.020Z,4.40
2018-08-13T17:45:24.699Z,4.80
2018-08-13T17:47:52.994Z,4.30
2018-08-13T17:50:21.750Z,4.43
2018-08-13T17:52:50.183Z,4.93
2018-08-13T17:55:18.720Z,5.30
2018-08-13T17:57:47.080Z,5.53
2018-08-13T18:00:17.569Z,5.53
2018-08-13T18:02:45.856Z,5.50
2018-08-13T18:05:16.554Z,5.33
2018-08-13T18:07:44.925Z,5.80
2018-08-13T18:10:16.150Z,4.93
2018-08-13T18:12:44.398Z,5.43
2018-08-13T18:15:14.666Z,5.23
2018-08-13T18:17:43.428Z,5.73
2018-08-13T18:20:12.055Z,9.07
2018-08-13T18:22:40.398Z,7.43
2018-08-13T18:25:10.401Z,3.87
2018-08-13T18:27:39.272Z,4.30
2018-08-13T18:30:09.804Z,4.70
2018-08-13T18:32:38.901Z,4.73
2018-08-13T18:35:07.200Z,5.00
2018-08-13T18:37:35.821Z,4.77
2018-08-13T18:40:05.595Z,4.80
2018-08-13T18:42:33.883Z,4.37
2018-08-13T18:45:02.244Z,3.70
2018-08-13T18:47:30.523Z,4.50
2018-08-13T18:49:58.758Z,6.77
2018-08-13T18:52:26.991Z,5.17
2018-08-13T18:54:55.425Z,4.10
2018-08-13T18:57:24.568Z,4.70
2018-08-13T18:59:52.833Z,3.33
2018-08-13T19:02:21.081Z,3.40
2018-08-13T19:04:49.448Z,3.20
2018-08-13T19:07:18.587Z,3.77
2018-08-13T19:09:47.176Z,3.00
2018-08-13T19:12:15.641Z,2.43
2018-08-13T19:14:44.019Z,2.60
2018-08-13T19:17:12.334Z,2.30
2018-08-13T19:19:40.582Z,2.93
2018-08-13T19:22:08.848Z,2.80
2018-08-13T19:24:37.247Z,3.03
2018-08-13T19:27:05.606Z,2.83
2018-08-13T19:29:33.867Z,3.40
2018-08-13T19:32:02.186Z,2.83
2018-08-13T19:34:30.550Z,2.60
2018-08-13T19:36:58.920Z,2.83
2018-08-13T19:39:27.275Z,2.50
2018-08-13T19:41:55.503Z,3.00
2018-08-13T19:44:23.835Z,2.70
2018-08-13T19:46:52.265Z,2.90
2018-08-13T19:49:20.546Z,2.77
2018-08-13T19:51:48.789Z,2.93
2018-08-13T19:54:17.059Z,3.80
2018-08-13T19:56:45.279Z,3.40
2018-08-13T19:59:13.530Z,3.70
2018-08-13T20:01:41.762Z,3.50
2018-08-13T20:04:10.036Z,3.73
2018-08-13T20:06:38.238Z,3.40
2018-08-13T20:09:08.225Z,3.50
2018-08-13T20:11:36.516Z,3.90
2018-08-13T20:14:04.824Z,3.60
2018-08-13T20:16:33.136Z,3.50
2018-08-13T20:19:01.565Z,3.20
2018-08-13T20:21:29.823Z,3.43
2018-08-13T20:23:58.259Z,3.40
2018-08-13T20:26:26.594Z,3.30
2018-08-13T20:28:55.874Z,3.73
2018-08-13T20:31:24.333Z,3.73
2018-08-13T20:33:52.710Z,4.10
2018-08-13T20:36:21.014Z,4.60
2018-08-13T20:38:49.270Z,4.40
2018-08-13T20:41:17.572Z,4.70
2018-08-13T20:43:45.794Z,4.73
2018-08-13T20:46:14.006Z,4.37
2018-08-13T20:48:42.243Z,4.23
2018-08-13T20:51:10.492Z,4.13
2018-08-13T20:53:38.796Z,4.37
2018-08-13T20:58:37.244Z,4.20
2018-08-13T21:01:05.485Z,4.03
2018-08-13T21:03:33.785Z,4.23
2018-08-13T21:06:02.012Z,4.60
2018-08-13T21:08:30.258Z,4.30
2018-08-13T21:10:58.741Z,4.70
2018-08-13T21:13:27.001Z,5.27
2018-08-13T21:15:55.291Z,5.67
2018-08-13T21:18:23.628Z,4.90
2018-08-13T21:20:51.931Z,5.43
2018-08-13T21:23:20.126Z,5.43
2018-08-13T21:25:48.379Z,5.03
2018-08-13T21:28:16.655Z,5.60
2018-08-13T21:30:44.884Z,5.30
2018-08-13T21:33:13.198Z,5.23
2018-08-13T21:35:41.485Z,4.77
2018-08-13T21:38:11.262Z,4.60
2018-08-13T21:40:39.476Z,4.37
2018-08-13T21:43:07.789Z,4.40
2018-08-13T21:45:35.994Z,4.60
2018-08-13T21:48:04.224Z,4.00
2018-08-13T21:50:32.437Z,4.20
2018-08-13T21:53:00.943Z,4.17
2018-08-13T21:55:29.440Z,3.80
2018-08-13T21:57:57.664Z,4.37
2018-08-13T22:00:29.688Z,3.90
2018-08-13T22:03:01.323Z,4.50
2018-08-13T22:05:29.598Z,3.73
2018-08-13T22:07:57.890Z,4.37
2018-08-13T22:10:26.296Z,4.40
2018-08-13T22:12:54.571Z,4.30
2018-08-13T22:15:29.908Z,4.67
2018-08-13T22:17:59.522Z,4.57
2018-08-13T22:20:28.434Z,4.80
2018-08-13T22:22:57.628Z,4.63
2018-08-13T22:25:40.242Z,4.83
2018-08-13T22:28:09.557Z,4.43
2018-08-13T22:30:37.894Z,5.23
2018-08-13T22:33:07.142Z,4.40
2018-08-13T22:35:35.356Z,4.70
2018-08-13T22:38:03.571Z,4.40
2018-08-13T22:40:31.839Z,4.47
2018-08-13T22:43:00.065Z,4.27
2018-08-13T22:45:28.348Z,4.77
2018-08-13T22:47:56.602Z,5.00
2018-08-13T22:50:24.801Z,4.70
2018-08-13T22:52:53.011Z,4.80
2018-08-13T22:55:21.235Z,4.30
2018-08-13T22:57:49.564Z,4.57
2018-08-13T23:00:19.069Z,4.50
2018-08-13T23:02:48.215Z,4.73
2018-08-13T23:05:20.032Z,4.63
2018-08-13T23:07:48.321Z,5.10
2018-08-13T23:10:18.653Z,4.80
2018-08-13T23:12:48.106Z,4.97
2018-08-13T23:15:17.036Z,4.53
2018-08-13T23:17:45.478Z,4.77
2018-08-13T23:20:18.997Z,5.10
2018-08-13T23:22:49.809Z,5.07
2018-08-13T23:25:18.498Z,5.13
2018-08-13T23:27:47.525Z,4.63
2018-08-13T23:30:16.399Z,4.90
2018-08-13T23:32:46.200Z,5.20
2018-08-13T23:35:15.128Z,5.03
2018-08-13T23:37:43.438Z,4.90
2018-08-13T23:40:11.663Z,5.00
2018-08-13T23:42:39.848Z,5.17
2018-08-13T23:45:11.897Z,5.20
2018-08-13T23:47:40.110Z,5.30
2018-08-13T23:50:10.080Z,4.87
2018-08-13T23:52:39.117Z,5.10
2018-08-13T23:55:10.405Z,4.07
2018-08-13T23:57:38.626Z,4.70
